createdAt,value
2024-02-22T00:00:41.182Z,18.9
2024-02-22T00:01:55.538Z,19
2024-02-22T00:03:09.886Z,18.9
2024-02-22T00:04:24.256Z,18.9
2024-02-22T00:05:38.604Z,19
2024-02-22T00:06:52.966Z,18.9
2024-02-22T00:08:07.318Z,18.9
2024-02-22T00:09:21.000Z,18.9
2024-02-22T00:10:36.031Z,18.9
2024-02-22T00:11:50.388Z,18.9
2024-02-22T00:13:03.789Z,18.9
2024-02-22T00:14:18.159Z,18.9
2024-02-22T00:15:32.000Z,19
2024-02-22T00:16:46.859Z,19
2024-02-22T00:18:01.212Z,18.9
2024-02-22T00:19:15.568Z,18.9
2024-02-22T00:21:44.278Z,18.9
2024-02-22T00:22:58.648Z,18.9
2024-02-22T00:24:12.996Z,18.9
2024-02-22T00:25:27.000Z,18.9
2024-02-22T00:26:41.000Z,18.9
2024-02-22T00:27:56.067Z,18.9
2024-02-22T00:29:09.473Z,18.9
2024-02-22T00:30:23.839Z,18.9
2024-02-22T00:32:52.547Z,18.9
2024-02-22T00:34:06.894Z,19
2024-02-22T00:35:21.255Z,18.9
2024-02-22T00:36:35.614Z,18.9
2024-02-22T00:37:50.000Z,19
2024-02-22T00:39:04.322Z,18.9
2024-02-22T00:40:18.675Z,18.9
2024-02-22T00:41:33.034Z,18.9
2024-02-22T00:42:47.000Z,18.9
2024-02-22T00:44:01.740Z,18.9
2024-02-22T00:45:15.167Z,19
2024-02-22T00:46:29.524Z,18.9
2024-02-22T00:47:43.862Z,18.9
2024-02-22T00:48:58.000Z,18.9
2024-02-22T00:50:12.574Z,18.9
2024-02-22T00:51:26.938Z,18.9
2024-02-22T00:52:41.000Z,18.9
2024-02-22T00:53:55.648Z,18.9
2024-02-22T00:55:10.008Z,18.9
2024-02-22T00:56:24.369Z,18.9
2024-02-22T00:57:38.714Z,18.9
2024-02-22T00:58:53.075Z,18.9
2024-02-22T01:00:07.000Z,18.9
2024-02-22T01:01:20.843Z,18.9
2024-02-22T01:02:35.204Z,18.9
2024-02-22T01:03:49.000Z,18.9
2024-02-22T01:05:03.909Z,18.9
2024-02-22T01:06:18.274Z,18.9
2024-02-22T01:07:32.614Z,18.9
2024-02-22T01:08:46.974Z,18.9
2024-02-22T01:10:01.332Z,18.9
2024-02-22T01:11:15.000Z,18.9
2024-02-22T01:12:30.051Z,18.9
2024-02-22T01:13:44.398Z,18.9
2024-02-22T01:14:58.000Z,18.9
2024-02-22T01:16:13.000Z,18.9
2024-02-22T01:17:26.522Z,18.9
2024-02-22T01:18:40.883Z,18.9
2024-02-22T01:19:55.247Z,18.9
2024-02-22T01:21:09.590Z,18.9
2024-02-22T01:22:24.000Z,18.9
2024-02-22T01:23:38.299Z,18.9
2024-02-22T01:24:52.671Z,18.8
2024-02-22T01:26:07.015Z,18.9
2024-02-22T01:27:21.000Z,18.9
2024-02-22T01:28:35.726Z,18.9
2024-02-22T01:29:50.086Z,18.9
2024-02-22T01:31:04.436Z,18.9
2024-02-22T01:32:18.801Z,18.9
2024-02-22T01:33:32.000Z,18.9
2024-02-22T01:34:46.565Z,18.9
2024-02-22T01:36:00.919Z,18.9
2024-02-22T01:37:15.000Z,18.9
2024-02-22T01:38:29.624Z,18.9
2024-02-22T01:39:43.990Z,18.9
2024-02-22T01:40:58.354Z,18.9
2024-02-22T01:42:12.698Z,18.8
2024-02-22T01:43:27.051Z,18.9
2024-02-22T01:44:41.000Z,18.9
2024-02-22T01:45:55.762Z,18.9
2024-02-22T01:47:10.122Z,18.8
2024-02-22T01:48:24.000Z,18.8
2024-02-22T01:49:37.897Z,18.8
2024-02-22T01:50:52.244Z,18.8
2024-02-22T01:52:06.600Z,18.8
2024-02-22T01:53:20.000Z,18.8
2024-02-22T01:54:35.323Z,18.8
2024-02-22T01:55:49.663Z,18.9
2024-02-22T01:57:04.018Z,18.9
2024-02-22T01:58:18.375Z,18.9
2024-02-22T01:59:32.747Z,18.8
2024-02-22T02:00:47.092Z,18.8
2024-02-22T02:02:01.455Z,18.8
2024-02-22T02:03:15.802Z,18.8
2024-02-22T02:04:30.156Z,18.8
2024-02-22T02:05:43.575Z,18.8
2024-02-22T02:06:57.935Z,18.8
2024-02-22T02:08:12.295Z,18.8
2024-02-22T02:09:26.634Z,18.8
2024-02-22T02:10:40.999Z,18.8
2024-02-22T02:11:55.346Z,18.8
2024-02-22T02:13:09.710Z,18.8
2024-02-22T02:14:24.062Z,18.8
2024-02-22T02:15:38.419Z,18.8
2024-02-22T02:16:52.785Z,18.8
2024-02-22T02:18:07.000Z,18.8
2024-02-22T02:19:21.497Z,18.8
2024-02-22T02:20:35.845Z,18.9
2024-02-22T02:21:49.268Z,18.8
2024-02-22T02:23:03.610Z,18.8
2024-02-22T02:24:17.967Z,18.8
2024-02-22T02:25:32.325Z,18.8
2024-02-22T02:26:46.687Z,18.8
2024-02-22T02:28:01.050Z,18.9
2024-02-22T02:29:15.000Z,18.8
2024-02-22T02:30:29.760Z,18.8
2024-02-22T02:31:44.105Z,18.8
2024-02-22T02:32:58.465Z,18.8
2024-02-22T02:34:12.000Z,18.8
2024-02-22T02:35:27.180Z,18.8
2024-02-22T02:36:41.522Z,18.8
2024-02-22T02:37:54.944Z,18.8
2024-02-22T02:39:09.292Z,18.8
2024-02-22T02:40:23.653Z,18.8
2024-02-22T02:41:38.016Z,18.8
2024-02-22T02:42:52.368Z,18.8
2024-02-22T02:44:06.719Z,18.8
2024-02-22T02:45:21.000Z,18.8
2024-02-22T02:46:35.437Z,18.8
2024-02-22T02:47:49.795Z,18.8
2024-02-22T02:49:04.156Z,18.8
2024-02-22T02:50:18.494Z,18.8
2024-02-22T02:51:32.000Z,18.8
2024-02-22T02:52:47.206Z,18.8
2024-02-22T02:54:00.635Z,18.8
2024-02-22T02:55:14.975Z,18.8
2024-02-22T02:56:29.330Z,18.8
2024-02-22T02:57:43.686Z,18.8
2024-02-22T02:58:58.045Z,18.8
2024-02-22T03:00:12.411Z,18.8
2024-02-22T03:01:26.762Z,18.8
2024-02-22T03:02:41.112Z,18.8
2024-02-22T03:03:55.466Z,18.8
2024-02-22T03:05:09.837Z,18.8
2024-02-22T03:06:24.179Z,18.8
2024-02-22T03:07:38.547Z,18.8
2024-02-22T03:08:52.887Z,18.8
2024-02-22T03:10:06.308Z,18.8
2024-02-22T03:11:20.658Z,18.8
2024-02-22T03:12:35.011Z,18.8
2024-02-22T03:13:49.370Z,18.8
2024-02-22T03:15:03.000Z,18.8
2024-02-22T03:16:18.088Z,18.8
2024-02-22T03:17:32.434Z,18.8
2024-02-22T03:18:46.000Z,18.8
2024-02-22T03:20:01.150Z,18.8
2024-02-22T03:21:15.515Z,18.8
2024-02-22T03:22:29.000Z,18.8
2024-02-22T03:23:44.230Z,18.8
2024-02-22T03:24:58.000Z,18.8
2024-02-22T03:26:11.983Z,18.8
2024-02-22T03:27:26.342Z,18.8
2024-02-22T03:28:40.697Z,18.8
2024-02-22T03:29:55.000Z,18.8
2024-02-22T03:31:09.403Z,18.8
2024-02-22T03:32:23.758Z,18.8
2024-02-22T03:33:38.130Z,18.8
2024-02-22T03:34:52.485Z,18.8
2024-02-22T03:36:06.000Z,18.8
2024-02-22T03:37:21.188Z,18.8
2024-02-22T03:38:35.546Z,18.8
2024-02-22T03:39:49.906Z,18.8
2024-02-22T03:41:04.000Z,18.8
2024-02-22T03:42:17.675Z,18.8
2024-02-22T03:43:32.030Z,18.7
2024-02-22T03:44:46.382Z,18.8
2024-02-22T03:46:00.739Z,18.8
2024-02-22T03:47:15.000Z,18.8
2024-02-22T03:48:29.453Z,18.8
2024-02-22T03:49:43.809Z,18.8
2024-02-22T03:50:58.151Z,18.8
2024-02-22T03:52:12.000Z,18.8
2024-02-22T03:53:26.870Z,18.8
2024-02-22T03:54:41.218Z,18.8
2024-02-22T03:55:55.000Z,18.8
2024-02-22T03:57:09.928Z,18.8
2024-02-22T03:58:23.347Z,18.8
2024-02-22T03:59:37.717Z,18.8
2024-02-22T04:00:52.058Z,18.8
2024-02-22T04:02:06.416Z,18.8
2024-02-22T04:03:20.000Z,18.8
2024-02-22T04:04:35.121Z,18.8
2024-02-22T04:05:48.539Z,18.8
2024-02-22T04:07:02.896Z,18.8
2024-02-22T04:08:17.249Z,18.8
2024-02-22T04:09:31.615Z,18.8
2024-02-22T04:10:45.975Z,18.8
2024-02-22T04:12:00.314Z,18.8
2024-02-22T04:13:14.671Z,18.8
2024-02-22T04:14:29.000Z,18.8
2024-02-22T04:15:43.395Z,18.8
2024-02-22T04:16:57.743Z,18.8
2024-02-22T04:18:12.096Z,18.7
2024-02-22T04:19:26.454Z,18.8
2024-02-22T04:20:40.000Z,18.7
2024-02-22T04:21:54.000Z,18.8
2024-02-22T04:23:08.587Z,18.8
2024-02-22T04:24:22.939Z,18.7
2024-02-22T04:25:37.000Z,18.8
2024-02-22T04:26:51.652Z,18.8
2024-02-22T04:28:06.004Z,18.7
2024-02-22T04:29:20.360Z,18.7
2024-02-22T04:30:34.720Z,18.8
2024-02-22T04:31:49.078Z,18.8
2024-02-22T04:33:03.435Z,18.8
2024-02-22T04:34:17.786Z,18.8
2024-02-22T04:35:32.143Z,18.8
2024-02-22T04:36:46.000Z,18.7
2024-02-22T04:38:00.851Z,18.8
2024-02-22T04:39:15.198Z,18.8
2024-02-22T04:40:28.610Z,18.7
2024-02-22T04:41:42.965Z,18.7
2024-02-22T04:42:57.331Z,18.7
2024-02-22T04:44:11.685Z,18.8
2024-02-22T04:45:26.042Z,18.8
2024-02-22T04:46:40.401Z,18.8
2024-02-22T04:47:54.000Z,18.8
2024-02-22T04:49:09.112Z,18.8
2024-02-22T04:50:23.000Z,18.8
2024-02-22T04:51:37.826Z,18.8
2024-02-22T04:52:52.175Z,18.8
2024-02-22T04:54:06.524Z,18.8
2024-02-22T04:55:20.880Z,18.8
2024-02-22T04:56:34.304Z,18.8
2024-02-22T04:57:48.656Z,18.8
2024-02-22T04:59:03.000Z,18.8
2024-02-22T05:00:17.367Z,18.8
2024-02-22T05:01:31.724Z,18.8
2024-02-22T05:02:46.071Z,18.8
2024-02-22T05:04:00.427Z,18.8
2024-02-22T05:05:14.784Z,18.8
2024-02-22T05:06:29.141Z,18.8
2024-02-22T05:07:43.497Z,18.8
2024-02-22T05:08:57.852Z,18.8
2024-02-22T05:10:12.000Z,18.8
2024-02-22T05:11:26.573Z,18.8
2024-02-22T05:12:39.993Z,18.8
2024-02-22T05:13:54.349Z,18.8
2024-02-22T05:15:08.704Z,18.8
2024-02-22T05:16:23.000Z,18.8
2024-02-22T05:17:37.401Z,18.8
2024-02-22T05:18:51.760Z,18.8
2024-02-22T05:20:06.000Z,18.8
2024-02-22T05:21:20.000Z,18.8
2024-02-22T05:22:34.837Z,18.8
2024-02-22T05:23:49.189Z,18.8
2024-02-22T05:25:03.547Z,18.7
2024-02-22T05:26:18.000Z,18.8
2024-02-22T05:27:32.000Z,18.8
2024-02-22T05:28:45.669Z,18.8
2024-02-22T05:30:00.023Z,18.8
2024-02-22T05:31:14.383Z,18.8
2024-02-22T05:32:28.738Z,18.8
2024-02-22T05:33:43.092Z,18.8
2024-02-22T05:34:57.437Z,18.8
2024-02-22T05:36:11.000Z,18.8
2024-02-22T05:37:26.147Z,18.8
2024-02-22T05:38:40.000Z,18.8
2024-02-22T05:39:54.865Z,18.8
2024-02-22T05:41:09.000Z,18.7
2024-02-22T05:42:23.581Z,18.8
2024-02-22T05:43:38.000Z,18.8
2024-02-22T05:44:51.347Z,18.8
2024-02-22T05:46:05.709Z,18.8
2024-02-22T05:47:20.049Z,18.7
2024-02-22T05:48:34.412Z,18.7
2024-02-22T05:49:48.000Z,18.7
2024-02-22T05:51:03.130Z,18.8
2024-02-22T05:52:17.487Z,18.8
2024-02-22T05:53:31.842Z,18.7
2024-02-22T05:54:46.190Z,18.7
2024-02-22T05:56:00.549Z,18.7
2024-02-22T05:57:14.913Z,18.7
2024-02-22T05:58:29.264Z,18.7
2024-02-22T05:59:43.621Z,18.7
2024-02-22T06:00:57.000Z,18.7
2024-02-22T06:02:11.392Z,18.7
2024-02-22T06:03:25.743Z,18.7
2024-02-22T06:04:40.100Z,18.7
2024-02-22T06:05:54.000Z,18.7
2024-02-22T06:07:08.796Z,18.7
2024-02-22T06:08:23.165Z,18.7
2024-02-22T06:09:37.512Z,18.7
2024-02-22T06:10:51.000Z,18.7
2024-02-22T06:12:06.000Z,18.7
2024-02-22T06:13:20.578Z,18.7
2024-02-22T06:14:34.947Z,18.7
2024-02-22T06:15:49.301Z,18.7
2024-02-22T06:17:02.000Z,18.7
2024-02-22T06:18:17.060Z,18.7
2024-02-22T06:19:31.414Z,18.7
2024-02-22T06:20:45.770Z,18.7
2024-02-22T06:22:00.121Z,18.7
2024-02-22T06:23:14.000Z,18.7
2024-02-22T06:24:28.840Z,18.7
2024-02-22T06:25:43.136Z,18.7
2024-02-22T06:26:57.491Z,18.6
2024-02-22T06:28:11.000Z,18.6
2024-02-22T06:29:26.212Z,18.6
2024-02-22T06:30:40.575Z,18.7
2024-02-22T06:31:54.928Z,18.7
2024-02-22T06:33:08.288Z,18.6
2024-02-22T06:34:22.000Z,18.6
2024-02-22T06:35:36.889Z,18.6
2024-02-22T06:36:51.191Z,18.6
2024-02-22T06:38:05.502Z,18.6
2024-02-22T06:39:19.806Z,18.6
2024-02-22T06:40:34.154Z,18.6
2024-02-22T06:41:48.510Z,18.6
2024-02-22T06:43:02.866Z,18.6
2024-02-22T06:44:17.174Z,18.6
2024-02-22T06:45:31.000Z,18.6
2024-02-22T06:46:45.000Z,18.6
2024-02-22T06:48:00.147Z,18.6
2024-02-22T06:49:13.571Z,18.6
2024-02-22T06:50:27.000Z,18.6
2024-02-22T06:51:42.181Z,18.6
2024-02-22T06:52:56.490Z,18.6
2024-02-22T06:54:10.802Z,18.6
2024-02-22T06:55:25.093Z,18.6
2024-02-22T06:57:53.000Z,18.6
2024-02-22T06:59:07.994Z,18.6
2024-02-22T07:00:22.000Z,18.6
2024-02-22T07:01:36.000Z,18.6
2024-02-22T07:02:50.904Z,18.6
2024-02-22T07:05:19.515Z,18.6
2024-02-22T07:06:32.864Z,18.6
2024-02-22T07:09:01.467Z,18.7
2024-02-22T07:10:14.855Z,18.7
2024-02-22T07:11:28.200Z,18.7
2024-02-22T07:12:42.000Z,18.7
2024-02-22T07:13:56.817Z,18.7
2024-02-22T07:15:11.000Z,18.7
2024-02-22T07:16:25.418Z,18.7
2024-02-22T07:17:39.718Z,18.7
2024-02-22T07:18:54.000Z,18.7
2024-02-22T07:20:08.000Z,18.7
2024-02-22T07:21:22.611Z,18.7
2024-02-22T07:22:36.000Z,18.7
2024-02-22T07:23:49.000Z,18.7
2024-02-22T07:25:03.657Z,18.7
2024-02-22T07:26:17.952Z,18.7
2024-02-22T07:27:32.249Z,18.8
2024-02-22T07:28:46.551Z,18.8
2024-02-22T07:30:00.000Z,18.8
2024-02-22T07:31:15.167Z,18.8
2024-02-22T07:32:29.457Z,18.8
2024-02-22T07:33:43.770Z,18.7
2024-02-22T07:36:12.367Z,18.8
2024-02-22T07:37:26.666Z,18.7
2024-02-22T07:38:40.979Z,18.8
2024-02-22T07:39:54.337Z,18.8
2024-02-22T07:41:08.000Z,18.8
2024-02-22T07:42:22.940Z,18.8
2024-02-22T07:43:37.229Z,18.8
2024-02-22T07:44:51.542Z,18.8
2024-02-22T07:46:05.000Z,18.8
2024-02-22T07:47:20.137Z,18.8
2024-02-22T07:48:34.451Z,18.8
2024-02-22T07:49:48.744Z,18.8
2024-02-22T07:51:03.047Z,18.8
2024-02-22T07:52:17.000Z,18.8
2024-02-22T07:53:31.000Z,18.8
2024-02-22T07:54:45.956Z,18.8
2024-02-22T07:55:59.323Z,18.8
2024-02-22T07:57:13.000Z,18.8
2024-02-22T07:58:27.921Z,18.8
2024-02-22T07:59:42.210Z,18.8
2024-02-22T08:00:56.511Z,18.8
2024-02-22T08:02:10.815Z,18.8
2024-02-22T08:03:25.133Z,18.8
2024-02-22T08:04:39.418Z,18.8
2024-02-22T08:05:53.738Z,18.8
2024-02-22T08:07:08.020Z,18.8
2024-02-22T08:08:22.000Z,18.8
2024-02-22T08:09:36.642Z,18.9
2024-02-22T08:10:50.944Z,18.8
2024-02-22T08:12:04.289Z,18.8
2024-02-22T08:13:18.601Z,18.8
2024-02-22T08:14:33.000Z,18.9
2024-02-22T08:15:46.260Z,18.8
2024-02-22T08:17:00.562Z,18.8
2024-02-22T08:18:14.861Z,18.9
2024-02-22T08:19:29.000Z,18.8
2024-02-22T08:20:43.462Z,18.8
2024-02-22T08:21:57.000Z,18.8
2024-02-22T08:23:12.068Z,18.9
2024-02-22T08:24:26.366Z,18.9
2024-02-22T08:25:40.000Z,18.9
2024-02-22T08:26:54.982Z,18.9
2024-02-22T08:28:09.286Z,18.9
2024-02-22T08:29:23.583Z,18.9
2024-02-22T08:30:37.000Z,18.9
2024-02-22T08:31:51.243Z,18.9
2024-02-22T08:33:05.540Z,18.9
2024-02-22T08:34:19.834Z,18.9
2024-02-22T08:35:34.149Z,18.9
2024-02-22T08:36:48.000Z,18.9
2024-02-22T08:38:02.752Z,18.9
2024-02-22T08:39:17.045Z,18.9
2024-02-22T08:40:31.347Z,18.9
2024-02-22T08:42:59.963Z,18.9
2024-02-22T08:44:14.253Z,18.9
2024-02-22T08:45:28.000Z,18.9
2024-02-22T08:46:42.869Z,18.9
2024-02-22T08:49:10.526Z,18.9
2024-02-22T08:50:24.826Z,18.9
2024-02-22T08:51:39.125Z,18.9
2024-02-22T08:52:53.000Z,18.9
2024-02-22T08:54:07.732Z,18.9
2024-02-22T08:55:22.029Z,18.9
2024-02-22T08:56:36.329Z,19
2024-02-22T08:57:50.627Z,19
2024-02-22T08:59:05.000Z,19
2024-02-22T09:00:19.245Z,19
2024-02-22T09:01:33.545Z,19
2024-02-22T09:02:47.835Z,19
2024-02-22T09:04:01.000Z,19
2024-02-22T09:05:15.511Z,19
2024-02-22T09:06:29.000Z,19
2024-02-22T09:07:44.108Z,19
2024-02-22T09:08:58.407Z,19
2024-02-22T09:10:12.705Z,19
2024-02-22T09:11:27.006Z,19
2024-02-22T09:12:41.320Z,19
2024-02-22T09:13:55.620Z,19
2024-02-22T09:16:24.211Z,18.9
2024-02-22T09:17:38.524Z,19
2024-02-22T09:18:52.831Z,19
2024-02-22T09:20:06.177Z,19
2024-02-22T09:22:34.779Z,19
2024-02-22T09:23:49.090Z,19
2024-02-22T09:25:03.386Z,19
2024-02-22T09:26:17.000Z,19
2024-02-22T09:27:32.004Z,19
2024-02-22T09:28:46.305Z,19
2024-02-22T09:30:00.601Z,19
2024-02-22T09:31:14.889Z,19
2024-02-22T09:32:29.206Z,19
2024-02-22T09:33:43.499Z,18.9
2024-02-22T09:34:57.813Z,19
2024-02-22T09:36:11.161Z,19
2024-02-22T09:37:25.000Z,19
2024-02-22T09:38:39.758Z,19
2024-02-22T09:39:54.054Z,19
2024-02-22T09:41:08.366Z,19
2024-02-22T09:42:22.664Z,19
2024-02-22T09:43:37.000Z,19
2024-02-22T09:44:51.257Z,19
2024-02-22T09:46:05.578Z,19
2024-02-22T09:47:19.000Z,19
2024-02-22T09:48:34.000Z,19.1
2024-02-22T09:49:48.474Z,19
2024-02-22T09:51:02.781Z,19.1
2024-02-22T09:52:16.125Z,19.1
2024-02-22T09:53:30.000Z,19.1
2024-02-22T09:54:44.000Z,19.1
2024-02-22T09:55:59.000Z,19.1
2024-02-22T09:57:13.337Z,19.1
2024-02-22T09:58:27.634Z,19.1
2024-02-22T09:59:42.000Z,19.2
2024-02-22T10:00:56.251Z,19.2
2024-02-22T10:02:10.550Z,19.2
2024-02-22T10:03:24.845Z,19.1
2024-02-22T10:04:39.145Z,19.1
2024-02-22T10:05:53.000Z,19.2
2024-02-22T10:07:07.750Z,19.1
2024-02-22T10:08:21.121Z,19.2
2024-02-22T10:09:35.424Z,19.2
2024-02-22T10:10:49.000Z,19.2
2024-02-22T10:12:04.028Z,19.2
2024-02-22T10:13:18.316Z,19.2
2024-02-22T10:14:32.635Z,19.2
2024-02-22T10:15:46.932Z,19.2
2024-02-22T10:17:01.000Z,19.2
2024-02-22T10:18:15.532Z,19.2
2024-02-22T10:19:29.828Z,19.2
2024-02-22T10:20:44.130Z,19.2
2024-02-22T10:21:58.000Z,19.2
2024-02-22T10:23:12.740Z,19.2
2024-02-22T10:24:26.000Z,19.2
2024-02-22T10:25:40.398Z,19.2
2024-02-22T10:26:54.000Z,19.1
2024-02-22T10:28:09.000Z,19.1
2024-02-22T10:29:23.295Z,19.1
2024-02-22T10:30:37.597Z,19.1
2024-02-22T10:31:51.916Z,19.1
2024-02-22T10:33:06.208Z,19.2
2024-02-22T10:34:20.514Z,19.2
2024-02-22T10:35:34.819Z,19.2
2024-02-22T10:36:49.119Z,19.1
2024-02-22T10:38:03.418Z,19.2
2024-02-22T10:39:17.709Z,19.2
2024-02-22T10:40:31.079Z,19.2
2024-02-22T10:41:45.372Z,19.2
2024-02-22T10:42:59.671Z,19.2
2024-02-22T10:44:14.000Z,19.2
2024-02-22T10:45:28.279Z,19.2
2024-02-22T10:46:42.595Z,19.2
2024-02-22T10:47:56.893Z,19.2
2024-02-22T10:49:11.194Z,19.2
2024-02-22T10:50:25.000Z,19.2
2024-02-22T10:51:39.789Z,19.2
2024-02-22T10:52:54.085Z,19.2
2024-02-22T10:54:08.000Z,19.2
2024-02-22T10:56:37.009Z,19.2
2024-02-22T10:57:50.000Z,19.2
2024-02-22T10:59:04.663Z,19.2
2024-02-22T11:00:18.967Z,19.2
2024-02-22T11:01:33.000Z,19.2
2024-02-22T11:02:47.561Z,19.2
2024-02-22T11:04:01.877Z,19.2
2024-02-22T11:05:16.161Z,19.3
2024-02-22T11:06:30.000Z,19.3
2024-02-22T11:07:44.772Z,19.4
2024-02-22T11:08:59.000Z,19.5
2024-02-22T11:10:13.374Z,19.5
2024-02-22T11:11:27.674Z,19.6
2024-02-22T11:13:56.000Z,19.5
2024-02-22T11:15:09.643Z,19.5
2024-02-22T11:16:24.000Z,19.5
2024-02-22T11:17:38.000Z,19.6
2024-02-22T11:18:52.554Z,19.7
2024-02-22T11:20:06.000Z,19.7
2024-02-22T11:21:21.143Z,19.8
2024-02-22T11:22:35.000Z,19.9
2024-02-22T11:25:04.000Z,20
2024-02-22T11:26:18.349Z,19.9
2024-02-22T11:27:32.655Z,19.9
2024-02-22T11:28:47.000Z,19.8
2024-02-22T11:30:01.264Z,19.8
2024-02-22T11:31:14.636Z,19.9
2024-02-22T11:32:28.934Z,19.9
2024-02-22T11:33:43.237Z,19.8
2024-02-22T11:34:57.000Z,19.7
2024-02-22T11:36:11.847Z,19.8
2024-02-22T11:37:26.153Z,19.9
2024-02-22T11:38:40.454Z,19.9
2024-02-22T11:39:54.000Z,19.9
2024-02-22T11:41:09.052Z,19.9
2024-02-22T11:42:23.357Z,19.8
2024-02-22T11:43:37.000Z,19.8
2024-02-22T11:44:51.953Z,19.8
2024-02-22T11:46:06.000Z,19.8
2024-02-22T11:47:19.615Z,19.8
2024-02-22T11:48:33.925Z,19.8
2024-02-22T11:49:48.233Z,19.7
2024-02-22T11:51:02.524Z,19.7
2024-02-22T11:52:16.837Z,19.7
2024-02-22T11:53:31.121Z,19.7
2024-02-22T11:54:45.427Z,19.7
2024-02-22T11:55:59.739Z,19.7
2024-02-22T11:57:14.000Z,19.7
2024-02-22T11:58:28.330Z,19.7
2024-02-22T11:59:42.643Z,19.7
2024-02-22T12:00:57.000Z,19.7
2024-02-22T12:02:11.000Z,19.7
2024-02-22T12:03:24.624Z,19.7
2024-02-22T12:04:38.923Z,19.7
2024-02-22T12:05:53.228Z,19.7
2024-02-22T12:07:07.525Z,19.7
2024-02-22T12:08:21.000Z,19.7
2024-02-22T12:09:36.124Z,19.8
2024-02-22T12:10:50.435Z,19.8
2024-02-22T12:12:04.737Z,19.7
2024-02-22T12:13:19.000Z,19.7
2024-02-22T12:14:33.329Z,19.7
2024-02-22T12:15:47.633Z,19.6
2024-02-22T12:17:01.924Z,19.6
2024-02-22T12:18:16.226Z,19.6
2024-02-22T12:20:43.896Z,19.5
2024-02-22T12:21:58.197Z,19.5
2024-02-22T12:23:12.494Z,19.5
2024-02-22T12:24:25.857Z,19.5
2024-02-22T12:25:40.164Z,19.5
2024-02-22T12:26:54.461Z,19.5
2024-02-22T12:28:08.760Z,19.5
2024-02-22T12:29:23.066Z,19.5
2024-02-22T12:30:37.365Z,19.5
2024-02-22T12:31:51.669Z,19.5
2024-02-22T12:33:05.973Z,19.5
2024-02-22T12:34:20.265Z,19.5
2024-02-22T12:35:34.000Z,19.5
2024-02-22T12:36:48.878Z,19.5
2024-02-22T12:38:03.173Z,19.5
2024-02-22T12:39:17.473Z,19.5
2024-02-22T12:40:30.847Z,19.5
2024-02-22T12:41:45.146Z,19.5
2024-02-22T12:42:59.447Z,19.5
2024-02-22T12:44:13.737Z,19.5
2024-02-22T12:45:28.048Z,19.5
2024-02-22T12:46:42.000Z,19.5
2024-02-22T12:47:56.657Z,19.5
2024-02-22T12:49:10.944Z,19.5
2024-02-22T12:50:25.246Z,19.5
2024-02-22T12:51:39.548Z,19.5
2024-02-22T12:54:08.000Z,19.5
2024-02-22T12:55:22.457Z,19.5
2024-02-22T12:56:35.000Z,19.5
2024-02-22T12:57:50.122Z,19.5
2024-02-22T12:59:04.420Z,19.5
2024-02-22T13:00:18.747Z,19.5
2024-02-22T13:01:33.029Z,19.6
2024-02-22T13:02:47.345Z,19.6
2024-02-22T13:04:01.000Z,19.7
2024-02-22T13:05:15.945Z,19.6
2024-02-22T13:06:30.251Z,19.6
2024-02-22T13:07:44.555Z,19.6
2024-02-22T13:08:58.000Z,19.6
2024-02-22T13:10:13.161Z,19.6
2024-02-22T13:11:27.461Z,19.6
2024-02-22T13:12:40.810Z,19.6
2024-02-22T13:13:55.111Z,19.6
2024-02-22T13:15:09.000Z,19.6
2024-02-22T13:16:23.710Z,19.5
2024-02-22T13:17:38.016Z,19.5
2024-02-22T13:18:52.322Z,19.5
2024-02-22T13:20:06.617Z,19.5
2024-02-22T13:21:20.920Z,19.5
2024-02-22T13:22:35.236Z,19.5
2024-02-22T13:23:49.530Z,19.5
2024-02-22T13:25:03.833Z,19.5
2024-02-22T13:26:18.000Z,19.6
2024-02-22T13:27:32.434Z,19.6
2024-02-22T13:28:45.786Z,19.6
2024-02-22T13:30:00.000Z,19.6
2024-02-22T13:31:14.000Z,19.7
2024-02-22T13:32:28.705Z,19.6
2024-02-22T13:33:43.006Z,19.6
2024-02-22T13:34:57.304Z,19.6
2024-02-22T13:36:11.602Z,19.6
2024-02-22T13:37:26.000Z,19.6
2024-02-22T13:38:40.205Z,19.6
2024-02-22T13:39:54.502Z,19.6
2024-02-22T13:41:08.803Z,19.6
2024-02-22T13:42:23.000Z,19.7
2024-02-22T13:43:37.420Z,19.7
2024-02-22T13:44:50.780Z,19.6
2024-02-22T13:46:05.075Z,19.7
2024-02-22T13:47:19.374Z,19.7
2024-02-22T13:48:33.000Z,19.7
2024-02-22T13:49:48.000Z,19.7
2024-02-22T13:51:02.276Z,19.7
2024-02-22T13:52:16.593Z,19.7
2024-02-22T13:53:30.883Z,19.7
2024-02-22T13:54:45.184Z,19.6
2024-02-22T13:55:59.492Z,19.6
2024-02-22T13:57:13.796Z,19.6
2024-02-22T13:58:28.099Z,19.6
2024-02-22T13:59:42.000Z,19.6
2024-02-22T14:00:55.746Z,19.6
2024-02-22T14:02:10.060Z,19.6
2024-02-22T14:03:24.360Z,19.6
2024-02-22T14:04:38.000Z,19.6
2024-02-22T14:05:52.963Z,19.6
2024-02-22T14:07:07.264Z,19.6
2024-02-22T14:08:21.559Z,19.6
2024-02-22T14:09:35.861Z,19.5
2024-02-22T14:10:50.000Z,19.6
2024-02-22T14:12:04.478Z,19.6
2024-02-22T14:13:18.774Z,19.6
2024-02-22T14:14:33.069Z,19.5
2024-02-22T14:15:47.000Z,19.5
2024-02-22T14:17:00.730Z,19.5
2024-02-22T14:18:15.046Z,19.5
2024-02-22T14:19:29.336Z,19.5
2024-02-22T14:20:43.634Z,19.5
2024-02-22T14:21:58.000Z,19.5
2024-02-22T14:23:12.252Z,19.5
2024-02-22T14:24:26.000Z,19.5
2024-02-22T14:25:40.853Z,19.5
2024-02-22T14:28:09.451Z,19.5
2024-02-22T14:29:23.754Z,19.5
2024-02-22T14:30:38.065Z,19.5
2024-02-22T14:31:52.356Z,19.5
2024-02-22T14:33:05.000Z,19.5
2024-02-22T14:34:20.012Z,19.4
2024-02-22T14:35:34.311Z,19.5
2024-02-22T14:36:48.618Z,19.4
2024-02-22T14:38:03.000Z,19.5
2024-02-22T14:39:17.229Z,19.4
2024-02-22T14:40:31.533Z,19.4
2024-02-22T14:41:45.839Z,19.4
2024-02-22T14:43:00.121Z,19.4
2024-02-22T14:44:14.000Z,19.4
2024-02-22T14:45:28.741Z,19.5
2024-02-22T14:46:43.044Z,19.4
2024-02-22T14:47:57.000Z,19.5
2024-02-22T14:49:10.690Z,19.5
2024-02-22T14:50:24.993Z,19.5
2024-02-22T14:51:39.293Z,19.4
2024-02-22T14:52:53.000Z,19.4
2024-02-22T14:54:07.905Z,19.5
2024-02-22T14:55:22.204Z,19.4
2024-02-22T14:56:36.509Z,19.4
2024-02-22T14:57:50.817Z,19.4
2024-02-22T14:59:05.104Z,19.4
2024-02-22T15:00:19.000Z,19.4
2024-02-22T15:01:33.720Z,19.5
2024-02-22T15:02:48.019Z,19.4
2024-02-22T15:04:02.324Z,19.4
2024-02-22T15:05:15.675Z,19.4
2024-02-22T15:06:30.000Z,19.4
2024-02-22T15:07:44.290Z,19.4
2024-02-22T15:08:58.575Z,19.4
2024-02-22T15:10:12.880Z,19.4
2024-02-22T15:11:27.000Z,19.4
2024-02-22T15:12:41.482Z,19.4
2024-02-22T15:13:55.788Z,19.4
2024-02-22T15:15:10.085Z,19.4
2024-02-22T15:16:24.398Z,19.3
2024-02-22T15:17:38.000Z,19.4
2024-02-22T15:18:52.994Z,19.3
2024-02-22T15:20:07.299Z,19.4
2024-02-22T15:21:20.653Z,19.3
2024-02-22T15:22:35.000Z,19.3
2024-02-22T15:23:49.251Z,19.3
2024-02-22T15:25:03.555Z,19.3
2024-02-22T15:26:17.861Z,19.3
2024-02-22T15:27:32.170Z,19.3
2024-02-22T15:28:46.000Z,19.3
2024-02-22T15:30:00.767Z,19.3
2024-02-22T15:31:15.058Z,19.3
2024-02-22T15:32:29.377Z,19.3
2024-02-22T15:33:43.000Z,19.3
2024-02-22T15:34:57.973Z,19.3
2024-02-22T15:36:12.277Z,19.3
2024-02-22T15:37:25.630Z,19.3
2024-02-22T15:38:39.928Z,19.3
2024-02-22T15:39:54.000Z,19.3
2024-02-22T15:41:08.536Z,19.3
2024-02-22T15:42:22.841Z,19.3
2024-02-22T15:43:37.146Z,19.3
2024-02-22T15:44:51.000Z,19.3
2024-02-22T15:46:05.756Z,19.3
2024-02-22T15:47:20.070Z,19.2
2024-02-22T15:48:34.355Z,19.3
2024-02-22T15:49:48.665Z,19.3
2024-02-22T15:51:03.000Z,19.3
2024-02-22T15:52:17.000Z,19.2
2024-02-22T15:53:30.627Z,19.2
2024-02-22T15:54:45.000Z,19.2
2024-02-22T15:55:59.000Z,19.2
2024-02-22T15:57:13.525Z,19.2
2024-02-22T15:58:27.827Z,19.2
2024-02-22T15:59:42.147Z,19.2
2024-02-22T16:00:56.438Z,19.2
2024-02-22T16:02:10.000Z,19.2
2024-02-22T16:03:25.052Z,19.3
2024-02-22T16:04:39.354Z,19.3
2024-02-22T16:05:53.657Z,19.2
2024-02-22T16:07:08.000Z,19.2
2024-02-22T16:08:22.259Z,19.2
2024-02-22T16:09:35.000Z,19.2
2024-02-22T16:10:49.912Z,19.2
2024-02-22T16:12:04.217Z,19.2
2024-02-22T16:14:32.811Z,19.2
2024-02-22T16:15:47.111Z,19.2
2024-02-22T16:17:01.419Z,19.2
2024-02-22T16:18:15.000Z,19.2
2024-02-22T16:19:30.018Z,19.2
2024-02-22T16:20:44.323Z,19.2
2024-02-22T16:21:58.000Z,19.2
2024-02-22T16:23:13.049Z,19.2
2024-02-22T16:25:41.708Z,19.2
2024-02-22T16:26:55.076Z,19.2
2024-02-22T16:28:09.378Z,19.2
2024-02-22T16:29:23.000Z,19.2
2024-02-22T16:30:38.081Z,19.2
2024-02-22T16:31:52.400Z,19.2
2024-02-22T16:33:05.762Z,19.2
2024-02-22T16:34:20.116Z,19.2
2024-02-22T16:35:34.000Z,19.2
2024-02-22T16:36:48.821Z,19.2
2024-02-22T16:38:03.183Z,19.2
2024-02-22T16:39:17.541Z,19.2
2024-02-22T16:40:31.000Z,19.2
2024-02-22T16:41:46.151Z,19.2
2024-02-22T16:43:00.443Z,19.2
2024-02-22T16:44:14.756Z,19.2
2024-02-22T16:45:29.055Z,19.2
2024-02-22T16:46:43.000Z,19.2
2024-02-22T16:47:57.714Z,19.2
2024-02-22T16:49:11.128Z,19.2
2024-02-22T16:50:25.478Z,19.2
2024-02-22T16:51:39.000Z,19.2
2024-02-22T16:52:54.201Z,19.2
2024-02-22T16:54:08.540Z,19.2